createdAt,value
2019-03-27T00:00:44.990Z,20.60
2019-03-27T00:01:44.974Z,22.00
2019-03-27T00:02:44.962Z,21.50
2019-03-27T00:03:44.969Z,21.80
2019-03-27T00:04:44.951Z,22.10
2019-03-27T00:05:44.947Z,22.70
2019-03-27T00:06:44.926Z,22.70
2019-03-27T00:07:44.907Z,22.10
2019-03-27T00:08:44.903Z,22.40
2019-03-27T00:09:44.893Z,22.50
2019-03-27T00:10:44.881Z,22.70
2019-03-27T00:11:44.869Z,22.80
2019-03-27T00:12:44.865Z,23.00
2019-03-27T00:13:44.853Z,21.90
2019-03-27T00:14:44.849Z,23.40
2019-03-27T00:15:44.839Z,23.30
2019-03-27T00:16:44.816Z,23.30
2019-03-27T00:17:44.830Z,24.30
2019-03-27T00:18:44.791Z,23.90
2019-03-27T00:19:44.785Z,24.20
2019-03-27T00:20:44.772Z,24.70
2019-03-27T00:21:44.821Z,25.00
2019-03-27T00:22:44.747Z,24.30
2019-03-27T00:23:44.736Z,25.40
2019-03-27T00:24:44.728Z,24.70
2019-03-27T00:25:44.720Z,23.80
2019-03-27T00:26:44.708Z,25.20
2019-03-27T00:27:44.698Z,27.00
2019-03-27T00:28:44.802Z,25.40
2019-03-27T00:29:44.676Z,24.80
2019-03-27T00:30:44.671Z,25.90
2019-03-27T00:31:44.667Z,25.80
2019-03-27T00:32:44.675Z,25.30
2019-03-27T00:33:44.633Z,25.80
2019-03-27T00:34:44.631Z,28.20
2019-03-27T00:35:44.610Z,25.90
2019-03-27T00:36:44.599Z,27.30
2019-03-27T00:37:44.586Z,25.50
2019-03-27T00:38:44.587Z,25.80
2019-03-27T00:39:44.587Z,26.50
2019-03-27T00:40:44.560Z,27.10
2019-03-27T00:41:44.569Z,27.40
2019-03-27T00:42:44.539Z,27.10
2019-03-27T00:43:44.535Z,27.50
2019-03-27T00:44:44.536Z,28.20
2019-03-27T00:45:44.509Z,27.70
2019-03-27T00:46:44.494Z,26.60
2019-03-27T00:47:44.482Z,28.30
2019-03-27T00:48:44.485Z,27.80
2019-03-27T00:49:44.467Z,30.10
2019-03-27T00:50:44.466Z,29.60
2019-03-27T00:51:44.440Z,29.30
2019-03-27T00:52:44.429Z,30.20
2019-03-27T00:53:44.418Z,29.20
2019-03-27T00:54:44.418Z,31.40
2019-03-27T00:55:44.396Z,29.20
2019-03-27T00:56:44.396Z,28.80
2019-03-27T00:57:44.411Z,29.70
2019-03-27T00:58:44.363Z,30.10
2019-03-27T00:59:44.375Z,31.40
2019-03-27T01:00:44.338Z,30.00
2019-03-27T01:01:44.335Z,30.90
2019-03-27T01:02:44.321Z,29.70
2019-03-27T01:03:44.310Z,29.20
2019-03-27T01:04:44.303Z,30.10
2019-03-27T01:05:44.301Z,30.30
2019-03-27T01:06:44.283Z,29.60
2019-03-27T01:07:44.265Z,29.70
2019-03-27T01:08:44.256Z,30.20
2019-03-27T01:09:44.247Z,28.10
2019-03-27T01:10:44.235Z,30.50
2019-03-27T01:11:44.223Z,30.90
2019-03-27T01:12:44.224Z,29.30
2019-03-27T01:13:44.212Z,29.70
2019-03-27T01:14:44.189Z,30.90
2019-03-27T01:15:44.195Z,30.90
2019-03-27T01:16:44.173Z,32.40
2019-03-27T01:17:44.160Z,31.20
2019-03-27T01:18:44.151Z,31.00
2019-03-27T01:19:44.145Z,32.70
2019-03-27T01:20:44.129Z,32.50
2019-03-27T01:21:44.119Z,30.00
2019-03-27T01:22:44.107Z,29.50
2019-03-27T01:23:44.102Z,29.20
2019-03-27T01:24:44.099Z,32.00
2019-03-27T01:25:44.080Z,32.20
2019-03-27T01:26:44.102Z,31.80
2019-03-27T01:27:44.053Z,30.70
2019-03-27T01:28:44.048Z,30.30
2019-03-27T01:29:44.037Z,30.30
2019-03-27T01:30:44.031Z,30.60
2019-03-27T01:31:44.030Z,31.30
2019-03-27T01:32:44.002Z,30.80
2019-03-27T01:33:44.008Z,29.40
2019-03-27T01:34:43.980Z,30.80
2019-03-27T01:35:43.978Z,31.30
2019-03-27T01:36:43.952Z,30.40
2019-03-27T01:37:43.948Z,33.20
2019-03-27T01:38:43.944Z,30.40
2019-03-27T01:39:43.942Z,31.30
2019-03-27T01:40:43.925Z,31.70
2019-03-27T01:41:43.918Z,31.20
2019-03-27T01:42:43.889Z,31.20
2019-03-27T01:43:43.890Z,30.60
2019-03-27T01:44:43.879Z,29.90
2019-03-27T01:45:52.891Z,31.40
2019-03-27T01:46:44.848Z,32.80
2019-03-27T01:47:43.843Z,32.80
2019-03-27T01:48:43.947Z,31.30
2019-03-27T01:49:43.814Z,31.30
2019-03-27T01:50:43.808Z,31.60
2019-03-27T01:51:43.795Z,31.40
2019-03-27T01:52:43.789Z,31.20
2019-03-27T01:53:43.772Z,30.70
2019-03-27T01:54:43.759Z,32.60
2019-03-27T01:55:43.758Z,34.00
2019-03-27T01:56:43.742Z,29.90
2019-03-27T01:57:43.734Z,29.80
2019-03-27T01:58:43.724Z,31.90
2019-03-27T01:59:43.724Z,32.80
2019-03-27T02:00:43.717Z,32.00
2019-03-27T02:01:43.690Z,31.70
2019-03-27T02:02:43.675Z,31.20
2019-03-27T02:03:43.666Z,30.70
2019-03-27T02:04:43.657Z,30.40
2019-03-27T02:05:43.656Z,31.30
2019-03-27T02:06:43.635Z,33.40
2019-03-27T02:07:43.637Z,32.30
2019-03-27T02:08:43.615Z,32.30
2019-03-27T02:09:43.602Z,32.90
2019-03-27T02:10:43.659Z,31.90
2019-03-27T02:11:43.583Z,32.50
2019-03-27T02:12:43.569Z,32.00
2019-03-27T02:13:43.569Z,34.00
2019-03-27T02:14:43.551Z,33.00
2019-03-27T02:15:43.545Z,33.10
2019-03-27T02:16:43.524Z,32.60
2019-03-27T02:17:43.537Z,31.50
2019-03-27T02:18:43.537Z,33.10
2019-03-27T02:19:43.497Z,31.90
2019-03-27T02:20:43.512Z,31.20
2019-03-27T02:21:43.479Z,31.40
2019-03-27T02:22:43.461Z,32.90
2019-03-27T02:23:43.454Z,32.90
2019-03-27T02:24:43.473Z,33.20
2019-03-27T02:25:43.462Z,32.30
2019-03-27T02:26:43.442Z,34.60
2019-03-27T02:27:43.425Z,32.90
2019-03-27T02:28:43.402Z,33.40
2019-03-27T02:29:43.388Z,34.60
2019-03-27T02:30:43.387Z,32.70
2019-03-27T02:31:43.377Z,34.00
2019-03-27T02:32:43.366Z,33.80
2019-03-27T02:33:43.354Z,35.10
2019-03-27T02:34:43.344Z,32.20
2019-03-27T02:35:43.351Z,34.40
2019-03-27T02:36:43.312Z,34.40
2019-03-27T02:37:43.307Z,34.60
2019-03-27T02:38:43.287Z,36.00
2019-03-27T02:39:43.294Z,36.30
2019-03-27T02:40:43.272Z,32.90
2019-03-27T02:41:43.258Z,33.90
2019-03-27T02:42:43.257Z,32.10
2019-03-27T02:43:43.257Z,33.20
2019-03-27T02:44:43.245Z,33.50
2019-03-27T02:45:43.279Z,34.10
2019-03-27T02:46:43.204Z,32.30
2019-03-27T02:47:43.192Z,33.10
2019-03-27T02:48:43.184Z,35.80
2019-03-27T02:49:43.189Z,33.20
2019-03-27T02:50:43.177Z,32.60
2019-03-27T02:51:43.152Z,34.20
2019-03-27T02:52:43.140Z,35.20
2019-03-27T02:53:43.310Z,34.40
2019-03-27T02:54:43.124Z,33.40
2019-03-27T02:55:43.117Z,34.80
2019-03-27T02:56:43.104Z,34.10
2019-03-27T02:57:43.088Z,32.20
2019-03-27T02:58:43.123Z,33.90
2019-03-27T02:59:43.084Z,34.80
2019-03-27T03:00:43.126Z,33.70
2019-03-27T03:01:43.048Z,33.40
2019-03-27T03:02:43.042Z,32.30
2019-03-27T03:03:43.070Z,34.40
2019-03-27T03:04:43.018Z,34.90
2019-03-27T03:05:43.018Z,32.30
2019-03-27T03:06:42.995Z,34.60
2019-03-27T03:07:42.984Z,34.10
2019-03-27T03:08:42.983Z,34.30
2019-03-27T03:09:42.958Z,35.50
2019-03-27T03:10:45.451Z,34.70
2019-03-27T03:11:42.940Z,35.20
2019-03-27T03:12:42.936Z,36.40
2019-03-27T03:13:42.919Z,33.80
2019-03-27T03:14:42.914Z,34.90
2019-03-27T03:15:42.902Z,37.00
2019-03-27T03:16:43.506Z,36.90
2019-03-27T03:17:42.880Z,36.40
2019-03-27T03:18:42.869Z,36.90
2019-03-27T03:19:42.849Z,35.30
2019-03-27T03:20:42.866Z,34.60
2019-03-27T03:21:42.838Z,33.70
2019-03-27T03:22:42.852Z,33.50
2019-03-27T03:23:42.826Z,34.60
2019-03-27T03:24:42.808Z,34.00
2019-03-27T03:25:42.801Z,34.80
2019-03-27T03:26:42.781Z,34.70
2019-03-27T03:27:42.767Z,33.60
2019-03-27T03:28:42.768Z,35.40
2019-03-27T03:29:42.789Z,36.90
2019-03-27T03:30:42.762Z,36.50
2019-03-27T03:31:42.944Z,37.00
2019-03-27T03:32:42.722Z,36.40
2019-03-27T03:33:42.731Z,36.40
2019-03-27T03:34:42.694Z,36.90
2019-03-27T03:35:42.700Z,37.40
2019-03-27T03:36:42.667Z,35.70
2019-03-27T03:37:42.715Z,36.90
2019-03-27T03:38:42.646Z,34.50
2019-03-27T03:39:42.641Z,37.00
2019-03-27T03:40:42.667Z,36.80
2019-03-27T03:41:42.638Z,35.90
2019-03-27T03:42:42.611Z,37.90
2019-03-27T03:43:42.599Z,37.60
2019-03-27T03:44:42.580Z,36.80
2019-03-27T03:45:42.573Z,36.20
2019-03-27T03:46:58.390Z,37.00
2019-03-27T03:47:43.556Z,38.50
2019-03-27T03:48:42.543Z,38.00
2019-03-27T03:49:42.557Z,37.50
2019-03-27T03:50:42.519Z,38.10
2019-03-27T03:51:42.529Z,38.30
2019-03-27T03:52:45.824Z,37.10
2019-03-27T03:53:42.488Z,38.80
2019-03-27T03:54:42.491Z,36.70
2019-03-27T03:55:42.500Z,37.00
2019-03-27T03:56:42.475Z,37.40
2019-03-27T03:57:42.445Z,38.20
2019-03-27T03:58:43.133Z,37.70
2019-03-27T03:59:42.434Z,37.60
2019-03-27T04:00:42.414Z,36.60
2019-03-27T04:01:42.432Z,35.50
2019-03-27T04:02:42.389Z,36.30
2019-03-27T04:03:42.380Z,37.80
2019-03-27T04:04:42.365Z,36.60
2019-03-27T04:05:42.419Z,37.90
2019-03-27T04:06:42.362Z,36.00
2019-03-27T04:07:42.349Z,38.70
2019-03-27T04:08:42.342Z,36.60
2019-03-27T04:09:42.332Z,37.40
2019-03-27T04:10:42.305Z,36.40
2019-03-27T04:11:42.316Z,35.70
2019-03-27T04:12:42.291Z,36.30
2019-03-27T04:13:42.274Z,34.30
2019-03-27T04:14:42.271Z,36.10
2019-03-27T04:15:42.257Z,34.50
2019-03-27T04:16:42.255Z,37.00
2019-03-27T04:17:42.232Z,36.40
2019-03-27T04:18:42.222Z,36.90
2019-03-27T04:19:42.216Z,36.50
2019-03-27T04:20:42.222Z,37.10
2019-03-27T04:21:42.203Z,37.50
2019-03-27T04:22:42.183Z,37.40
2019-03-27T04:23:42.172Z,36.30
2019-03-27T04:24:42.162Z,36.20
2019-03-27T04:26:06.892Z,36.20
2019-03-27T04:26:43.153Z,35.40
2019-03-27T04:27:42.188Z,35.30
2019-03-27T04:28:42.118Z,36.50
2019-03-27T04:29:42.101Z,37.10
2019-03-27T04:30:42.177Z,35.40
2019-03-27T04:31:42.119Z,36.30
2019-03-27T04:32:42.074Z,36.00
2019-03-27T04:33:42.062Z,35.50
2019-03-27T04:34:42.083Z,36.60
2019-03-27T04:35:42.069Z,37.20
2019-03-27T04:36:42.074Z,35.90
2019-03-27T04:37:42.040Z,35.90
2019-03-27T04:38:42.017Z,36.50
2019-03-27T04:39:41.991Z,35.50
2019-03-27T04:40:41.988Z,37.00
2019-03-27T04:41:42.098Z,37.40
2019-03-27T04:42:41.982Z,36.50
2019-03-27T04:43:41.962Z,36.60
2019-03-27T04:44:41.944Z,36.50
2019-03-27T04:45:41.944Z,35.80
2019-03-27T04:46:42.038Z,37.10
2019-03-27T04:47:41.918Z,35.90
2019-03-27T04:48:41.905Z,36.40
2019-03-27T04:49:41.905Z,38.10
2019-03-27T04:50:41.874Z,35.40
2019-03-27T04:51:41.874Z,37.50
2019-03-27T04:52:41.880Z,36.20
2019-03-27T04:53:41.845Z,36.60
2019-03-27T04:54:41.830Z,35.80
2019-03-27T04:55:42.625Z,37.20
2019-03-27T04:56:41.833Z,36.70
2019-03-27T04:57:41.805Z,38.60
2019-03-27T04:58:41.791Z,37.20
2019-03-27T04:59:41.782Z,36.00
2019-03-27T05:00:41.777Z,34.60
2019-03-27T05:01:41.773Z,36.20
2019-03-27T05:02:41.750Z,35.30
2019-03-27T05:03:41.744Z,37.80
2019-03-27T05:04:41.722Z,35.60
2019-03-27T05:05:41.712Z,35.90
2019-03-27T05:06:41.718Z,38.40
2019-03-27T05:07:41.699Z,39.00
2019-03-27T05:08:41.690Z,37.80
2019-03-27T05:09:41.678Z,36.90
2019-03-27T05:10:41.715Z,37.70
2019-03-27T05:11:41.663Z,35.70
2019-03-27T05:12:41.645Z,38.20
2019-03-27T05:13:41.639Z,36.60
2019-03-27T05:14:41.628Z,37.00
2019-03-27T05:15:41.666Z,36.50
2019-03-27T05:16:41.611Z,35.60
2019-03-27T05:17:46.266Z,37.20
2019-03-27T05:18:42.671Z,35.10
2019-03-27T05:19:41.569Z,36.50
2019-03-27T05:20:41.549Z,37.10
2019-03-27T05:21:41.541Z,35.90
2019-03-27T05:22:41.553Z,35.40
2019-03-27T05:23:41.526Z,34.60
2019-03-27T05:24:41.585Z,34.50
2019-03-27T05:25:41.522Z,37.30
2019-03-27T05:26:41.490Z,37.50
2019-03-27T05:27:41.500Z,37.00
2019-03-27T05:28:41.482Z,35.00
2019-03-27T05:29:41.461Z,36.70
2019-03-27T05:30:41.465Z,34.70
2019-03-27T05:31:41.463Z,35.00
2019-03-27T05:32:41.420Z,35.00
2019-03-27T05:33:41.419Z,38.10
2019-03-27T05:34:41.407Z,34.70
2019-03-27T05:35:41.398Z,35.40
2019-03-27T05:36:41.397Z,34.90
2019-03-27T05:37:41.393Z,34.90
2019-03-27T05:38:41.458Z,35.30
2019-03-27T05:39:41.351Z,35.00
2019-03-27T05:40:41.340Z,33.50
2019-03-27T05:41:41.337Z,34.10
2019-03-27T05:42:41.317Z,35.20
2019-03-27T05:43:41.312Z,35.10
2019-03-27T05:44:41.299Z,35.20
2019-03-27T05:45:41.294Z,35.90
2019-03-27T05:46:41.299Z,37.20
2019-03-27T05:47:41.264Z,36.20
2019-03-27T05:48:41.253Z,35.10
2019-03-27T05:49:41.244Z,35.70
2019-03-27T05:50:41.235Z,35.00
2019-03-27T05:51:41.247Z,35.50
2019-03-27T05:52:41.239Z,35.70
2019-03-27T05:53:41.280Z,35.50
2019-03-27T05:54:41.196Z,36.40
2019-03-27T05:55:41.210Z,33.70
2019-03-27T05:56:41.183Z,35.10
2019-03-27T05:57:41.170Z,35.10
2019-03-27T05:58:41.144Z,33.10
2019-03-27T05:59:41.157Z,34.30
2019-03-27T06:00:41.139Z,34.90
2019-03-27T06:01:41.127Z,34.70
2019-03-27T06:02:41.117Z,34.30
2019-03-27T06:03:41.105Z,33.80
2019-03-27T06:04:41.081Z,35.10
2019-03-27T06:05:41.068Z,32.10
2019-03-27T06:06:41.094Z,33.70
2019-03-27T06:07:41.045Z,31.70
2019-03-27T06:08:41.038Z,33.40
2019-03-27T06:09:41.091Z,33.10
2019-03-27T06:10:41.024Z,33.10
2019-03-27T06:11:41.002Z,32.10
2019-03-27T06:12:41.006Z,33.70
2019-03-27T06:13:40.981Z,33.10
2019-03-27T06:14:41.050Z,32.10
2019-03-27T06:15:40.963Z,31.30
2019-03-27T06:16:40.954Z,33.20
2019-03-27T06:17:40.951Z,32.70
2019-03-27T06:18:40.940Z,31.80
2019-03-27T06:19:40.919Z,30.40
2019-03-27T06:20:40.916Z,29.80
2019-03-27T06:21:40.931Z,30.10
2019-03-27T06:22:40.988Z,28.90
2019-03-27T06:23:40.878Z,30.10
2019-03-27T06:24:40.866Z,28.60
2019-03-27T06:25:40.872Z,28.00
2019-03-27T06:26:40.849Z,28.40
2019-03-27T06:27:40.839Z,28.90
2019-03-27T06:28:40.841Z,28.60
2019-03-27T06:29:40.847Z,27.00
2019-03-27T06:30:40.799Z,27.10
2019-03-27T06:31:40.791Z,27.10
2019-03-27T06:32:40.813Z,27.10
2019-03-27T06:33:40.779Z,26.30
2019-03-27T06:34:40.769Z,26.30
2019-03-27T06:35:40.752Z,27.20
2019-03-27T06:36:40.746Z,25.90
2019-03-27T06:37:40.740Z,27.10
2019-03-27T06:38:40.731Z,26.40
2019-03-27T06:39:40.715Z,26.90
2019-03-27T06:40:40.748Z,26.10
2019-03-27T06:41:40.684Z,27.00
2019-03-27T06:42:40.685Z,26.50
2019-03-27T06:43:40.696Z,26.30
2019-03-27T06:44:40.656Z,25.80
2019-03-27T06:45:40.659Z,25.30
2019-03-27T06:46:40.650Z,26.60
2019-03-27T06:47:40.642Z,27.40
2019-03-27T06:48:40.606Z,26.70
2019-03-27T06:49:40.606Z,27.50
2019-03-27T06:50:40.593Z,26.70
2019-03-27T06:51:40.726Z,26.70
2019-03-27T06:52:40.575Z,25.30
2019-03-27T06:53:40.552Z,24.10
2019-03-27T06:54:40.545Z,24.70
2019-03-27T06:55:40.542Z,25.10
2019-03-27T06:56:40.525Z,25.60
2019-03-27T06:57:40.519Z,24.80
2019-03-27T06:58:53.556Z,24.30
2019-03-27T06:59:41.499Z,22.10
2019-03-27T07:00:40.478Z,24.00
2019-03-27T07:01:40.480Z,24.40
2019-03-27T07:02:40.460Z,23.40
2019-03-27T07:03:40.476Z,23.80
2019-03-27T07:04:40.453Z,24.20
2019-03-27T07:05:40.425Z,24.60
2019-03-27T07:06:40.424Z,24.60
2019-03-27T07:07:40.423Z,22.70
2019-03-27T07:08:40.466Z,23.90
2019-03-27T07:09:42.547Z,24.90
2019-03-27T07:10:40.383Z,24.00
2019-03-27T07:11:40.368Z,24.50
2019-03-27T07:12:40.373Z,22.70
2019-03-27T07:13:40.341Z,23.60
2019-03-27T07:14:40.350Z,24.10
2019-03-27T07:15:40.319Z,23.30
2019-03-27T07:16:40.315Z,24.70
2019-03-27T07:17:40.309Z,24.40
2019-03-27T07:18:40.751Z,24.90
2019-03-27T07:19:40.282Z,24.30
2019-03-27T07:20:41.110Z,25.30
2019-03-27T07:21:40.273Z,23.50
2019-03-27T07:22:40.269Z,22.70
2019-03-27T07:23:40.264Z,23.70
2019-03-27T07:24:40.227Z,23.40
2019-03-27T07:25:40.224Z,21.40
2019-03-27T07:26:40.209Z,22.20
2019-03-27T07:27:40.266Z,23.60
2019-03-27T07:28:40.196Z,22.50
2019-03-27T07:29:40.175Z,23.80
2019-03-27T07:30:40.163Z,25.10
2019-03-27T07:31:40.163Z,24.50
2019-03-27T07:32:40.156Z,22.70
2019-03-27T07:33:40.129Z,22.90
2019-03-27T07:34:40.151Z,23.10
2019-03-27T07:35:40.114Z,21.20
2019-03-27T07:36:40.104Z,21.10
2019-03-27T07:37:40.097Z,23.40
2019-03-27T07:38:40.077Z,23.70
2019-03-27T07:39:40.087Z,22.20
2019-03-27T07:40:40.065Z,23.40
2019-03-27T07:41:40.062Z,23.60
2019-03-27T07:42:40.058Z,22.50
2019-03-27T07:43:40.028Z,23.10
2019-03-27T07:44:40.015Z,24.00
2019-03-27T07:45:40.007Z,21.60
2019-03-27T07:46:39.997Z,23.10
2019-03-27T07:47:39.996Z,21.60
2019-03-27T07:48:52.958Z,23.00
2019-03-27T07:49:40.982Z,23.00
2019-03-27T07:50:39.957Z,21.60
2019-03-27T07:51:39.959Z,21.00
2019-03-27T07:52:39.950Z,20.60
2019-03-27T07:53:39.920Z,21.70
2019-03-27T07:54:39.909Z,22.40
2019-03-27T07:55:39.910Z,22.20
2019-03-27T07:56:39.939Z,21.00
2019-03-27T07:57:39.914Z,22.20
2019-03-27T07:58:39.939Z,22.10
2019-03-27T07:59:39.893Z,20.40
2019-03-27T08:00:39.845Z,19.40
2019-03-27T08:01:39.844Z,19.00
2019-03-27T08:02:39.832Z,18.40
2019-03-27T08:03:39.828Z,19.00
2019-03-27T08:04:39.816Z,17.00
2019-03-27T08:05:39.800Z,16.80
2019-03-27T08:06:39.791Z,16.40
2019-03-27T08:07:39.785Z,17.90
2019-03-27T08:08:39.764Z,15.90
2019-03-27T08:09:39.759Z,14.30
2019-03-27T08:10:39.740Z,15.60
2019-03-27T08:11:39.897Z,15.80
2019-03-27T08:12:39.729Z,16.60
2019-03-27T08:13:39.714Z,16.50
2019-03-27T08:14:39.703Z,16.00
2019-03-27T08:15:40.933Z,16.10
2019-03-27T08:16:39.689Z,14.70
2019-03-27T08:17:39.679Z,14.10
2019-03-27T08:18:39.698Z,14.70
2019-03-27T08:19:39.656Z,14.00
2019-03-27T08:20:39.680Z,14.20
2019-03-27T08:21:39.621Z,14.20
2019-03-27T08:22:39.625Z,14.50
2019-03-27T08:23:39.610Z,14.10
2019-03-27T08:24:39.602Z,14.40
2019-03-27T08:25:39.621Z,14.30
2019-03-27T08:26:39.578Z,14.40
2019-03-27T08:27:39.606Z,13.80
2019-03-27T08:28:39.552Z,13.80
2019-03-27T08:29:39.539Z,14.10
2019-03-27T08:30:39.530Z,13.50
2019-03-27T08:31:39.549Z,12.70
2019-03-27T08:32:39.539Z,12.00
2019-03-27T08:33:39.553Z,13.10
2019-03-27T08:34:39.481Z,12.20
2019-03-27T08:35:39.502Z,12.10
2019-03-27T08:36:39.463Z,12.40
2019-03-27T08:37:39.454Z,11.80
2019-03-27T08:38:39.456Z,10.70
2019-03-27T08:39:39.439Z,11.10
2019-03-27T08:40:39.429Z,10.60
2019-03-27T08:41:39.410Z,11.30
2019-03-27T08:42:39.420Z,11.80
2019-03-27T08:43:39.461Z,11.60
2019-03-27T08:44:39.375Z,11.00
2019-03-27T08:45:39.376Z,11.70
2019-03-27T08:46:39.356Z,10.90
2019-03-27T08:47:39.351Z,11.90
2019-03-27T08:48:39.504Z,11.60
2019-03-27T08:49:39.322Z,11.10
2019-03-27T08:50:39.315Z,12.10
2019-03-27T08:51:39.305Z,12.00
2019-03-27T08:52:39.291Z,11.80
2019-03-27T08:53:39.301Z,11.40
2019-03-27T08:54:39.331Z,10.80
2019-03-27T08:55:39.266Z,11.70
2019-03-27T08:56:39.253Z,11.10
2019-03-27T08:57:39.240Z,10.90
2019-03-27T08:58:39.232Z,10.30
2019-03-27T08:59:39.219Z,10.70
2019-03-27T09:00:39.206Z,9.50
2019-03-27T09:01:39.234Z,11.20
2019-03-27T09:02:39.185Z,10.40
2019-03-27T09:03:39.178Z,11.20
2019-03-27T09:04:39.168Z,10.00
2019-03-27T09:05:39.154Z,9.90
2019-03-27T09:06:39.164Z,9.80
2019-03-27T09:07:39.137Z,9.40
2019-03-27T09:08:39.128Z,9.60
2019-03-27T09:09:39.110Z,9.50
2019-03-27T09:10:39.151Z,9.60
2019-03-27T09:11:39.094Z,9.40
2019-03-27T09:12:39.076Z,9.40
2019-03-27T09:13:39.080Z,10.30
2019-03-27T09:14:39.062Z,9.30
2019-03-27T09:15:39.053Z,8.70
2019-03-27T09:16:39.049Z,9.60
2019-03-27T09:17:39.036Z,9.30
2019-03-27T09:18:39.026Z,9.40
2019-03-27T09:19:39.000Z,9.00
2019-03-27T09:20:38.991Z,9.10
2019-03-27T09:21:38.984Z,8.60
2019-03-27T09:22:38.981Z,8.40
2019-03-27T09:23:39.006Z,7.30
2019-03-27T09:24:38.954Z,8.60
2019-03-27T09:25:38.981Z,8.20
2019-03-27T09:26:38.944Z,8.60
2019-03-27T09:27:38.920Z,8.80
2019-03-27T09:28:38.928Z,8.90
2019-03-27T09:29:38.948Z,8.40
2019-03-27T09:30:38.912Z,7.80
2019-03-27T09:31:44.664Z,8.00
2019-03-27T09:32:39.898Z,8.00
2019-03-27T09:33:38.881Z,8.20
2019-03-27T09:34:38.856Z,7.90
2019-03-27T09:35:38.846Z,7.10
2019-03-27T09:36:38.824Z,7.70
2019-03-27T09:37:38.816Z,6.90
2019-03-27T09:38:38.841Z,7.60
2019-03-27T09:39:38.800Z,7.40
2019-03-27T09:40:38.807Z,8.00
2019-03-27T09:41:38.762Z,8.10
2019-03-27T09:42:38.753Z,7.80
2019-03-27T09:43:38.829Z,7.50
2019-03-27T09:44:38.748Z,7.60
2019-03-27T09:45:38.720Z,8.10
2019-03-27T09:46:38.708Z,7.70
2019-03-27T09:47:38.703Z,8.00
2019-03-27T09:48:38.688Z,7.30
2019-03-27T09:49:49.040Z,7.40
2019-03-27T09:50:39.676Z,6.70
2019-03-27T09:51:38.668Z,6.90
2019-03-27T09:52:38.732Z,7.10
2019-03-27T09:53:38.636Z,6.80
2019-03-27T09:54:38.631Z,6.60
2019-03-27T09:55:38.614Z,6.00
2019-03-27T09:56:38.607Z,6.50
2019-03-27T09:57:38.592Z,7.00
2019-03-27T09:58:38.584Z,6.90
2019-03-27T09:59:38.574Z,7.00
2019-03-27T10:00:38.561Z,6.70
2019-03-27T10:01:38.547Z,6.50
2019-03-27T10:02:38.554Z,7.50
2019-03-27T10:03:38.528Z,7.00
2019-03-27T10:04:38.525Z,7.20
2019-03-27T10:05:38.558Z,7.20
2019-03-27T10:06:38.494Z,6.60
2019-03-27T10:07:38.499Z,6.90
2019-03-27T10:08:38.491Z,6.60
2019-03-27T10:09:38.470Z,7.80
2019-03-27T10:10:38.663Z,6.90
2019-03-27T10:11:38.465Z,7.20
2019-03-27T10:12:38.429Z,7.00
2019-03-27T10:13:38.424Z,7.20
2019-03-27T10:14:38.585Z,7.20
2019-03-27T10:15:38.403Z,7.20
2019-03-27T10:16:38.386Z,7.00
2019-03-27T10:17:38.385Z,6.80
2019-03-27T10:18:38.369Z,6.50
2019-03-27T10:19:38.365Z,6.50
2019-03-27T10:20:38.357Z,6.90
2019-03-27T10:21:38.362Z,7.00
2019-03-27T10:22:38.333Z,6.80
2019-03-27T10:23:38.314Z,7.10
2019-03-27T10:24:38.316Z,6.70
2019-03-27T10:25:38.290Z,7.00
2019-03-27T10:26:38.285Z,7.00
2019-03-27T10:27:38.274Z,6.50
2019-03-27T10:28:38.263Z,6.60
2019-03-27T10:29:38.279Z,6.60
2019-03-27T10:30:38.246Z,6.30
2019-03-27T10:31:38.230Z,6.40
2019-03-27T10:32:38.223Z,6.30
2019-03-27T10:33:38.206Z,6.20
2019-03-27T10:34:38.212Z,5.80
2019-03-27T10:35:38.212Z,5.90
2019-03-27T10:36:38.190Z,6.50
2019-03-27T10:37:38.197Z,6.50
2019-03-27T10:38:41.437Z,6.40
2019-03-27T10:39:38.205Z,6.60
2019-03-27T10:40:38.172Z,5.80
2019-03-27T10:41:38.121Z,6.20
2019-03-27T10:42:38.109Z,6.50
2019-03-27T10:43:38.124Z,6.60
2019-03-27T10:44:38.115Z,6.60
2019-03-27T10:45:38.083Z,5.80
2019-03-27T10:46:38.082Z,6.30
2019-03-27T10:47:38.059Z,6.50
2019-03-27T10:48:51.448Z,5.50
2019-03-27T10:49:39.055Z,5.60
2019-03-27T10:50:38.036Z,6.20
2019-03-27T10:51:38.014Z,6.10
2019-03-27T10:52:38.008Z,6.00
2019-03-27T10:53:38.028Z,5.80
2019-03-27T10:54:38.007Z,5.20
2019-03-27T10:55:37.979Z,5.80
2019-03-27T10:56:37.960Z,5.30
2019-03-27T10:57:37.957Z,5.50
2019-03-27T10:58:37.978Z,5.90
2019-03-27T10:59:37.933Z,6.10
2019-03-27T11:00:37.949Z,5.90
2019-03-27T11:01:37.914Z,6.00
2019-03-27T11:02:37.979Z,6.10
2019-03-27T11:03:37.894Z,5.60
2019-03-27T11:04:37.874Z,5.20
2019-03-27T11:05:37.892Z,5.20
2019-03-27T11:06:37.851Z,4.90
2019-03-27T11:07:37.852Z,4.30
2019-03-27T11:08:37.836Z,4.10
2019-03-27T11:09:37.827Z,4.10
2019-03-27T11:10:37.833Z,4.20
2019-03-27T11:11:37.795Z,4.00
2019-03-27T11:12:37.885Z,3.90
2019-03-27T11:13:37.775Z,3.80
2019-03-27T11:14:38.514Z,3.90
2019-03-27T11:15:37.799Z,3.90
2019-03-27T11:16:37.773Z,3.80
2019-03-27T11:17:37.745Z,3.80
2019-03-27T11:18:37.736Z,3.90
2019-03-27T11:19:37.716Z,3.40
2019-03-27T11:20:37.722Z,3.80
2019-03-27T11:21:37.757Z,4.00
2019-03-27T11:22:37.684Z,3.90
2019-03-27T11:23:37.673Z,4.20
2019-03-27T11:24:37.666Z,4.20
2019-03-27T11:25:37.662Z,3.90
2019-03-27T11:26:37.729Z,4.80
2019-03-27T11:27:37.634Z,4.70
2019-03-27T11:28:37.633Z,4.00
2019-03-27T11:29:37.620Z,3.90
2019-03-27T11:30:37.626Z,3.90
2019-03-27T11:31:37.614Z,3.90
2019-03-27T11:32:37.587Z,3.80
2019-03-27T11:33:37.635Z,3.50
2019-03-27T11:34:37.553Z,3.60
2019-03-27T11:35:37.548Z,3.40
2019-03-27T11:36:37.571Z,3.50
2019-03-27T11:37:37.530Z,3.30
2019-03-27T11:38:37.888Z,3.50
2019-03-27T11:39:37.503Z,3.60
2019-03-27T11:40:37.532Z,3.50
2019-03-27T11:41:37.533Z,3.40
2019-03-27T11:42:37.475Z,3.40
2019-03-27T11:43:37.458Z,4.00
2019-03-27T11:44:37.457Z,4.40
2019-03-27T11:45:37.440Z,3.70
2019-03-27T11:46:37.437Z,3.80
2019-03-27T11:47:37.415Z,3.60
2019-03-27T11:48:37.421Z,3.50
2019-03-27T11:49:37.396Z,3.70
2019-03-27T11:50:44.660Z,3.30
2019-03-27T11:51:38.376Z,3.20
2019-03-27T11:52:37.360Z,3.70
2019-03-27T11:53:37.352Z,3.40
2019-03-27T11:54:37.340Z,3.80
2019-03-27T11:55:37.864Z,3.70
2019-03-27T11:56:37.323Z,3.70
2019-03-27T11:57:37.309Z,4.00
2019-03-27T11:58:37.298Z,3.80
2019-03-27T11:59:37.287Z,3.70
2019-03-27T12:00:37.329Z,4.00
2019-03-27T12:01:42.133Z,4.20
2019-03-27T12:02:38.300Z,4.10
2019-03-27T12:03:37.245Z,4.90
2019-03-27T12:04:37.240Z,5.40
2019-03-27T12:05:37.242Z,5.30
2019-03-27T12:06:37.211Z,5.30
2019-03-27T12:07:37.201Z,4.40
2019-03-27T12:08:37.190Z,5.00
2019-03-27T12:09:37.222Z,5.70
2019-03-27T12:10:37.187Z,5.10
2019-03-27T12:11:37.164Z,4.30
2019-03-27T12:12:37.152Z,4.40
2019-03-27T12:13:37.144Z,3.70
2019-03-27T12:14:37.125Z,3.90
2019-03-27T12:15:37.148Z,3.80
2019-03-27T12:16:37.161Z,3.60
2019-03-27T12:17:37.101Z,3.50
2019-03-27T12:18:37.083Z,3.60
2019-03-27T12:19:37.967Z,3.50
2019-03-27T12:20:37.072Z,3.10
2019-03-27T12:21:37.057Z,3.50
2019-03-27T12:22:37.040Z,3.60
2019-03-27T12:23:37.084Z,3.60
2019-03-27T12:24:37.023Z,3.10
2019-03-27T12:25:37.017Z,3.40
2019-03-27T12:26:37.000Z,3.50
2019-03-27T12:27:36.988Z,3.10
2019-03-27T12:28:36.986Z,3.00
2019-03-27T12:29:36.977Z,3.40
2019-03-27T12:30:36.983Z,3.30
2019-03-27T12:31:36.944Z,3.00
2019-03-27T12:32:36.936Z,2.80
2019-03-27T12:33:36.951Z,2.60
2019-03-27T12:34:37.130Z,2.90
2019-03-27T12:35:36.936Z,2.80
2019-03-27T12:36:36.895Z,2.80
2019-03-27T12:37:36.885Z,2.80
2019-03-27T12:38:36.928Z,3.00
2019-03-27T12:39:36.858Z,2.70
2019-03-27T12:40:36.872Z,2.40
2019-03-27T12:41:36.835Z,2.30
2019-03-27T12:42:36.825Z,2.80
2019-03-27T12:43:36.824Z,2.70
2019-03-27T12:44:36.807Z,2.70
2019-03-27T12:45:36.808Z,2.50
2019-03-27T12:46:36.788Z,2.80
2019-03-27T12:47:36.786Z,3.00
2019-03-27T12:48:36.764Z,2.80
2019-03-27T12:49:36.749Z,2.90
2019-03-27T12:50:36.737Z,2.70
2019-03-27T12:51:36.729Z,2.70
2019-03-27T12:52:36.722Z,2.80
2019-03-27T12:53:36.711Z,3.00
2019-03-27T12:54:36.694Z,2.90
2019-03-27T12:55:36.697Z,3.10
2019-03-27T12:56:36.705Z,2.70
2019-03-27T12:57:36.683Z,3.00
2019-03-27T12:58:36.648Z,3.50
2019-03-27T12:59:36.638Z,3.40
2019-03-27T13:00:36.707Z,3.50